Time;durP1;ratioP1;P1;durP2;ratioP2;P2;SDS_P1;SDS_P2;PMS_P1;PMS_P2;Temp;Humidity;BMP_temperature;BMP_pressure;BME280_temperature;BME280_humidity;BME280_pressure;Samples;Min_cycle;Max_cycle;Signal;HPM_P1;HPM_P2
2022/04/04 00:01:35;;;;;;;9.50;9.20;;;-1.20;99.90;;;;;;5053223;28;20250;-85
2022/04/04 00:04:12;;;;;;;9.30;9.00;;;-1.20;99.90;;;;;;5101795;22;20280;-85
2022/04/04 00:06:59;;;;;;;9.40;9.10;;;-1.20;99.90;;;;;;5079546;28;20217;-85
2022/04/04 00:09:29;;;;;;;9.53;9.23;;;-1.20;99.90;;;;;;5062899;28;20319;-85
2022/04/04 00:12:09;;;;;;;9.63;9.33;;;-1.20;99.90;;;;;;5073277;28;20307;-85
2022/04/04 00:15:00;;;;;;;9.70;9.40;;;-1.30;99.90;;;;;;5081529;28;20237;-85
2022/04/04 00:20:21;;;;;;;9.47;9.17;;;-1.40;99.90;;;;;;5077689;28;20240;-85
2022/04/04 00:22:56;;;;;;;9.67;9.37;;;-1.40;99.90;;;;;;5073415;28;20702;-85
2022/04/04 00:25:28;;;;;;;9.43;9.13;;;-1.50;99.90;;;;;;5069487;28;20327;-85
2022/04/04 00:28:04;;;;;;;9.37;9.07;;;-1.50;99.90;;;;;;5061562;28;20241;-85
2022/04/04 00:30:43;;;;;;;9.30;9.00;;;-1.60;99.90;;;;;;5061215;28;20276;-85
2022/04/04 00:33:21;;;;;;;9.70;9.40;;;-1.60;99.90;;;;;;5060847;28;20235;-85
2022/04/04 00:35:52;;;;;;;9.90;9.60;;;-1.70;99.90;;;;;;5065100;28;20554;-85
2022/04/04 00:38:22;;;;;;;9.50;9.20;;;-1.70;99.90;;;;;;5064913;28;20318;-85
2022/04/04 00:41:04;;;;;;;9.73;9.43;;;-1.80;99.90;;;;;;5065426;28;20227;-85
2022/04/04 00:43:37;;;;;;;9.63;9.33;;;-1.80;99.90;;;;;;5064457;28;20271;-85
2022/04/04 00:48:53;;;;;;;9.23;8.93;;;-1.90;99.90;;;;;;5063531;28;20242;-85
2022/04/04 00:51:31;;;;;;;9.53;9.23;;;-1.90;99.90;;;;;;5063482;28;20226;-85
2022/04/04 00:54:00;;;;;;;9.50;9.20;;;-1.90;99.90;;;;;;5063376;28;20242;-85
2022/04/04 00:56:31;;;;;;;9.30;9.00;;;-1.80;99.90;;;;;;5062956;28;20265;-85
2022/04/04 00:59:03;;;;;;;9.60;9.30;;;-1.80;99.90;;;;;;5062592;28;20237;-85
2022/04/04 01:01:37;;;;;;;9.80;9.50;;;-1.80;99.90;;;;;;5062470;28;20223;-85
2022/04/04 01:04:11;;;;;;;9.60;9.30;;;-1.80;99.90;;;;;;5061879;28;20246;-85
2022/04/04 01:09:35;;;;;;;9.43;9.13;;;-1.80;99.90;;;;;;5062433;28;20278;-85
2022/04/04 01:14:52;;;;;;;9.30;9.00;;;-1.80;99.90;;;;;;5059412;28;20227;-85
2022/04/04 01:17:30;;;;;;;9.60;9.30;;;-1.80;99.90;;;;;;5062212;28;20230;-85
2022/04/04 01:20:09;;;;;;;9.13;8.83;;;-1.80;99.90;;;;;;5061785;28;20291;-85
2022/04/04 01:22:40;;;;;;;9.70;9.40;;;-1.90;99.90;;;;;;5061876;28;21059;-85
2022/04/04 01:25:17;;;;;;;9.30;9.00;;;-1.90;99.90;;;;;;5076000;28;20242;-84
2022/04/04 01:30:31;;;;;;;9.37;9.07;;;-1.90;99.90;;;;;;5060427;28;20238;-85
2022/04/04 01:33:02;;;;;;;9.03;8.80;;;-2.00;99.90;;;;;;5060427;28;20238;-85
2022/04/04 01:35:30;;;;;;;9.47;9.17;;;-2.00;99.90;;;;;;5061446;28;20236;-84
2022/04/04 01:38:00;;;;;;;9.30;9.00;;;-2.00;99.90;;;;;;5061723;28;20257;-85
2022/04/04 01:40:32;;;;;;;9.30;9.00;;;-2.00;99.90;;;;;;5064599;28;20226;-84
2022/04/04 01:43:00;;;;;;;9.43;9.13;;;-2.00;99.90;;;;;;5064298;28;21077;-84
2022/04/04 01:48:27;;;;;;;9.40;9.10;;;-2.00;99.90;;;;;;5064984;28;20216;-85
2022/04/04 01:50:55;;;;;;;8.90;8.70;;;-2.10;99.90;;;;;;5064190;28;20226;-85
2022/04/04 01:53:33;;;;;;;9.37;9.07;;;-2.10;99.90;;;;;;5063852;28;20241;-84
2022/04/04 01:56:10;;;;;;;9.20;8.90;;;-2.10;99.90;;;;;;5063850;28;20237;-85
2022/04/04 01:58:39;;;;;;;9.40;9.10;;;-2.10;99.90;;;;;;5064528;28;20234;-84
2022/04/04 02:01:19;;;;;;;9.77;9.47;;;-2.10;99.90;;;;;;5063719;28;20240;-84
2022/04/04 02:04:05;;;;;;;9.17;8.87;;;-2.10;99.90;;;;;;5062902;28;20239;-84
2022/04/04 02:06:36;;;;;;;9.53;9.23;;;-2.10;99.90;;;;;;5063921;28;20236;-84
2022/04/04 02:12:02;;;;;;;9.23;8.93;;;-2.10;99.90;;;;;;5063364;28;20246;-84
2022/04/04 02:14:32;;;;;;;9.60;9.30;;;-2.10;99.90;;;;;;5063084;28;20236;-85
2022/04/04 02:17:18;;;;;;;8.93;8.73;;;-2.10;99.90;;;;;;5063785;28;20286;-85
2022/04/04 02:19:55;;;;;;;9.30;9.00;;;-2.10;99.90;;;;;;5063976;28;20230;-85
2022/04/04 02:25:13;;;;;;;9.27;8.97;;;-2.00;99.90;;;;;;5063556;28;20280;-85
2022/04/04 02:27:49;;;;;;;9.40;9.10;;;-1.90;99.90;;;;;;5064321;28;20227;-85
2022/04/04 02:30:26;;;;;;;9.17;8.87;;;-1.90;99.90;;;;;;5063154;28;20237;-84
2022/04/04 02:32:56;;;;;;;8.53;8.33;;;-1.80;99.90;;;;;;5062863;28;20253;-85
2022/04/04 02:35:29;;;;;;;8.80;8.60;;;-1.80;99.90;;;;;;5063516;28;20270;-85
2022/04/04 02:37:57;;;;;;;8.90;8.70;;;-1.80;99.90;;;;;;5063959;28;20254;-85
2022/04/04 02:40:25;;;;;;;8.77;8.57;;;-1.90;99.90;;;;;;5063720;28;20239;-85
2022/04/04 02:43:03;;;;;;;8.80;8.60;;;-1.90;99.90;;;;;;5063098;28;20228;-84
2022/04/04 02:45:32;;;;;;;8.93;8.73;;;-1.90;99.90;;;;;;5063397;28;20241;-84
2022/04/04 02:48:02;;;;;;;9.40;9.10;;;-2.00;99.90;;;;;;5063939;28;20265;-85
2022/04/04 02:50:34;;;;;;;8.90;8.70;;;-2.00;99.90;;;;;;5063394;28;20227;-84
2022/04/04 02:53:06;;;;;;;9.47;9.17;;;-2.10;99.90;;;;;;5062771;28;20286;-85
2022/04/04 03:01:13;;;;;;;8.60;8.40;;;-2.00;99.90;;;;;;5061946;28;20238;-85
2022/04/04 03:03:42;;;;;;;8.87;8.67;;;-1.90;99.90;;;;;;5062272;28;20248;-84
2022/04/04 03:06:14;;;;;;;8.73;8.53;;;-1.90;99.90;;;;;;5061929;28;20233;-84
2022/04/04 03:09:02;;;;;;;9.30;9.00;;;-1.90;99.90;;;;;;5062690;28;20284;-85
2022/04/04 03:11:41;;;;;;;9.20;8.90;;;-1.90;99.90;;;;;;5063618;28;20262;-85
2022/04/04 03:14:11;;;;;;;8.83;8.63;;;-1.90;99.90;;;;;;5062936;28;20713;-85
2022/04/04 03:16:46;;;;;;;8.80;8.60;;;-1.90;99.90;;;;;;5071016;28;20215;-85
2022/04/04 03:19:16;;;;;;;8.80;8.60;;;-1.90;99.90;;;;;;5073296;28;20231;-84
2022/04/04 03:21:45;;;;;;;8.40;8.20;;;-1.90;99.90;;;;;;5072991;28;20227;-85
2022/04/04 03:24:16;;;;;;;8.80;8.60;;;-1.80;99.90;;;;;;5073142;28;20274;-85
2022/04/04 03:26:44;;;;;;;8.57;8.37;;;-1.80;99.90;;;;;;5072390;28;20257;-85
2022/04/04 03:29:22;;;;;;;9.07;8.87;;;-1.80;99.90;;;;;;5066675;28;20286;-84
2022/04/04 03:31:52;;;;;;;8.70;8.50;;;-1.80;99.90;;;;;;5066342;28;20252;-84
2022/04/04 03:34:23;;;;;;;9.20;8.90;;;-1.80;99.90;;;;;;5065401;28;20226;-85
2022/04/04 03:36:59;;;;;;;8.57;8.37;;;-1.70;99.90;;;;;;5066220;28;20289;-85
2022/04/04 03:39:28;;;;;;;8.80;8.60;;;-1.70;99.90;;;;;;5069973;28;20226;-84
2022/04/04 03:41:59;;;;;;;9.33;9.03;;;-1.70;99.90;;;;;;5080174;28;20219;-83
2022/04/04 03:44:30;;;;;;;8.67;8.47;;;-1.70;99.90;;;;;;5080029;28;20218;-84
2022/04/04 03:46:58;;;;;;;8.67;8.47;;;-1.70;99.90;;;;;;5073220;28;20228;-84
2022/04/04 03:49:26;;;;;;;9.00;8.80;;;-1.80;99.90;;;;;;5080545;28;20259;-83
2022/04/04 03:51:56;;;;;;;9.30;9.00;;;-1.80;99.90;;;;;;5074503;28;20228;-84
2022/04/04 03:54:25;;;;;;;9.13;8.90;;;-1.80;99.90;;;;;;5064921;28;20337;-85
2022/04/04 03:56:56;;;;;;;8.30;8.10;;;-1.80;99.90;;;;;;5066311;28;20235;-84
2022/04/04 03:59:26;;;;;;;8.93;8.73;;;-1.80;99.90;;;;;;5067720;28;20235;-85
2022/04/04 04:01:56;;;;;;;9.00;8.80;;;-1.80;99.90;;;;;;5062837;28;20238;-85
2022/04/04 04:04:31;;;;;;;9.30;9.00;;;-1.90;99.90;;;;;;5062765;28;20238;-84
2022/04/04 04:07:01;;;;;;;9.53;9.23;;;-1.90;99.90;;;;;;5063069;28;20206;-84
2022/04/04 04:09:42;;;;;;;9.40;9.10;;;-1.90;99.90;;;;;;5063353;28;20319;-84
2022/04/04 04:12:28;;;;;;;9.33;9.03;;;-2.00;99.90;;;;;;5062439;28;20247;-85
2022/04/04 04:14:57;;;;;;;9.33;9.03;;;-2.10;99.90;;;;;;5064465;28;20219;-84
2022/04/04 04:17:28;;;;;;;9.60;9.30;;;-2.10;99.90;;;;;;5071345;28;20238;-85
2022/04/04 04:22:45;;;;;;;9.47;9.17;;;-2.10;99.90;;;;;;5063347;28;20215;-84
2022/04/04 04:25:14;;;;;;;10.20;9.90;;;-2.10;99.90;;;;;;5063894;28;20214;-84
2022/04/04 04:27:45;;;;;;;9.40;9.10;;;-2.00;99.90;;;;;;5063237;28;20217;-84
2022/04/04 04:33:06;;;;;;;9.77;9.47;;;-2.10;99.90;;;;;;5060557;28;21010;-84
2022/04/04 04:35:37;;;;;;;9.30;9.00;;;-2.10;99.90;;;;;;5066714;28;20286;-83
2022/04/04 04:38:05;;;;;;;10.00;9.70;;;-2.00;99.90;;;;;;5063169;28;20242;-85
2022/04/04 04:40:34;;;;;;;9.83;9.53;;;-2.10;99.90;;;;;;5063067;28;20299;-85
2022/04/04 04:46:02;;;;;;;10.07;9.77;;;-2.20;99.90;;;;;;5063436;28;20229;-84
2022/04/04 04:51:16;;;;;;;10.00;9.70;;;-2.30;99.90;;;;;;5062157;28;20258;-85
2022/04/04 04:54:04;;;;;;;10.17;9.87;;;-2.20;99.90;;;;;;5062512;28;20239;-84
2022/04/04 04:56:39;;;;;;;10.10;9.80;;;-2.20;99.90;;;;;;5062932;28;20258;-84
2022/04/04 04:59:15;;;;;;;10.30;10.00;;;-2.10;99.90;;;;;;5072984;28;20215;-84
2022/04/04 05:01:43;;;;;;;10.10;9.80;;;-2.10;99.90;;;;;;5078063;28;20226;-84
2022/04/04 05:07:00;;;;;;;10.00;9.70;;;-2.10;99.90;;;;;;5076245;28;20226;-83
2022/04/04 05:09:28;;;;;;;9.63;9.33;;;-2.00;99.90;;;;;;5078513;28;20275;-84
2022/04/04 05:11:59;;;;;;;9.63;9.33;;;-2.00;99.90;;;;;;5075870;28;20224;-84
2022/04/04 05:14:47;;;;;;;9.63;9.33;;;-2.00;99.90;;;;;;5068394;28;20299;-85
2022/04/04 05:17:26;;;;;;;9.60;9.30;;;-2.00;99.90;;;;;;5080848;28;20288;-84
2022/04/04 05:22:42;;;;;;;10.00;9.70;;;-2.00;99.90;;;;;;5068412;28;20247;-84
2022/04/04 05:27:57;;;;;;;9.83;9.53;;;-2.00;99.90;;;;;;5066755;28;20220;-85
2022/04/04 05:30:35;;;;;;;10.20;9.90;;;-2.00;99.90;;;;;;5066101;28;20289;-85
2022/04/04 05:33:03;;;;;;;9.97;9.67;;;-2.00;99.90;;;;;;5066119;28;20240;-85
2022/04/04 05:35:37;;;;;;;10.10;9.80;;;-2.00;99.90;;;;;;5065534;28;20226;-85
2022/04/04 05:38:13;;;;;;;9.83;9.53;;;-2.00;99.90;;;;;;5065355;28;20241;-85
2022/04/04 05:40:41;;;;;;;9.80;9.50;;;-1.90;99.90;;;;;;5065416;28;20284;-85
2022/04/04 05:43:09;;;;;;;9.27;9.07;;;-1.80;99.90;;;;;;5064179;28;20242;-85
2022/04/04 05:45:40;;;;;;;8.90;8.70;;;-1.70;99.90;;;;;;5064710;28;20261;-84
2022/04/04 05:48:18;;;;;;;9.43;9.13;;;-1.70;99.90;;;;;;5065319;28;20225;-85
2022/04/04 05:50:56;;;;;;;8.80;8.60;;;-1.60;99.90;;;;;;5064645;28;20228;-85
2022/04/04 05:53:27;;;;;;;9.60;9.30;;;-1.50;99.90;;;;;;5064616;28;20303;-85
2022/04/04 05:55:55;;;;;;;9.27;8.97;;;-1.50;99.90;;;;;;5066052;28;20235;-85
2022/04/04 05:58:23;;;;;;;8.33;8.13;;;-1.40;99.90;;;;;;5064081;28;20219;-85
2022/04/04 06:03:41;;;;;;;8.37;8.17;;;-1.20;99.90;;;;;;5095406;22;20981;-85
2022/04/04 06:06:19;;;;;;;8.70;8.50;;;-1.20;99.90;;;;;;5079488;28;20232;-85
2022/04/04 06:08:48;;;;;;;9.17;8.87;;;-1.10;99.90;;;;;;5084887;28;20230;-85
2022/04/04 06:11:17;;;;;;;8.90;8.70;;;-1.00;99.90;;;;;;5083486;28;20214;-86
2022/04/04 06:13:47;;;;;;;8.90;8.70;;;-1.00;99.90;;;;;;5061983;28;20243;-84
2022/04/04 06:16:17;;;;;;;8.43;8.23;;;-0.90;99.90;;;;;;5063053;28;20530;-85
2022/04/04 06:18:46;;;;;;;8.57;8.37;;;-0.90;99.90;;;;;;5072014;28;20214;-85
2022/04/04 06:24:02;;;;;;;9.27;8.97;;;-0.80;99.90;;;;;;5080098;28;20209;-82
2022/04/04 06:26:31;;;;;;;8.93;8.73;;;-0.80;99.90;;;;;;5081450;28;20213;-85
2022/04/04 06:29:01;;;;;;;8.87;8.67;;;-0.70;99.90;;;;;;5092213;28;20295;-85
2022/04/04 06:31:30;;;;;;;8.77;8.57;;;-0.70;99.90;;;;;;5086073;28;20222;-85
2022/04/04 06:34:00;;;;;;;8.63;8.43;;;-0.70;99.90;;;;;;5082371;28;20233;-85
2022/04/04 06:36:32;;;;;;;9.03;8.80;;;-0.60;99.90;;;;;;5082128;28;20237;-84
2022/04/04 06:39:00;;;;;;;8.80;8.60;;;-0.50;99.90;;;;;;5082486;28;20217;-85
2022/04/04 06:41:30;;;;;;;8.87;8.67;;;-0.50;99.90;;;;;;5082221;28;20296;-85
2022/04/04 06:43:58;;;;;;;8.23;8.03;;;-0.40;99.90;;;;;;5081175;28;20344;-85
2022/04/04 06:46:27;;;;;;;9.10;8.83;;;-0.30;99.90;;;;;;5081845;28;20233;-85
2022/04/04 06:48:56;;;;;;;8.90;8.70;;;-0.30;99.90;;;;;;5081379;28;20245;-84
2022/04/04 06:51:26;;;;;;;9.23;8.93;;;-0.10;99.90;;;;;;5081412;28;20214;-84
2022/04/04 06:54:13;;;;;;;8.80;8.60;;;0.00;99.90;;;;;;5080661;28;20245;-85
2022/04/04 06:56:42;;;;;;;8.53;8.33;;;0.10;99.90;;;;;;5081644;28;20280;-84
2022/04/04 06:59:12;;;;;;;8.73;8.53;;;0.30;99.90;;;;;;5081251;28;20234;-84
2022/04/04 07:01:41;;;;;;;8.50;8.30;;;0.30;99.90;;;;;;5081552;28;20327;-85
2022/04/04 07:04:13;;;;;;;8.90;8.70;;;0.40;99.90;;;;;;5090909;28;20242;-85
2022/04/04 07:06:42;;;;;;;8.63;8.43;;;0.60;99.90;;;;;;5085157;28;20237;-85
2022/04/04 07:09:14;;;;;;;9.40;9.10;;;0.70;99.90;;;;;;5090503;28;20222;-84
2022/04/04 07:11:42;;;;;;;9.57;9.27;;;0.80;99.90;;;;;;5098636;28;20230;-84
2022/04/04 07:14:11;;;;;;;9.80;9.50;;;0.90;99.90;;;;;;5096430;28;20290;-83
2022/04/04 07:16:40;;;;;;;9.67;9.37;;;1.00;99.90;;;;;;5087994;28;20232;-84
2022/04/04 07:19:09;;;;;;;9.83;9.53;;;1.00;99.90;;;;;;5087006;28;20295;-85
2022/04/04 07:21:40;;;;;;;9.90;9.60;;;1.10;99.90;;;;;;5084076;28;20411;-86
2022/04/04 07:24:21;;;;;;;9.57;9.27;;;1.20;99.90;;;;;;5083634;28;20234;-85
2022/04/04 07:33:18;;;;;;;9.73;9.43;;;1.50;99.90;;;;;;5079356;28;20232;-85
2022/04/04 07:36:22;;;;;;;9.77;9.47;;;1.50;99.90;;;;;;5079571;28;20234;-89
2022/04/04 07:38:59;;;;;;;9.70;9.40;;;1.60;99.90;;;;;;5083563;28;20236;-89
2022/04/04 07:41:28;;;;;;;9.47;9.17;;;1.70;99.90;;;;;;5075682;28;20289;-92
2022/04/04 07:47:04;;;;;;;9.40;9.10;;;1.90;99.90;;;;;;5083282;28;20218;-87
2022/04/04 07:49:42;;;;;;;9.37;9.07;;;1.90;99.90;;;;;;5083699;28;20244;-89
2022/04/04 07:52:17;;;;;;;9.50;9.20;;;1.90;99.90;;;;;;5080387;28;20233;-89
2022/04/04 07:55:03;;;;;;;9.43;9.13;;;2.00;99.90;;;;;;5084014;28;20228;-91
2022/04/04 08:02:16;;;;;;;9.87;9.57;;;2.10;99.90;;;;;;5072833;28;20261;-91
2022/04/04 08:08:58;;;;;;;9.30;9.00;;;2.40;99.90;;;;;;5077379;28;20222;-87
2022/04/04 08:15:08;;;;;;;9.70;9.40;;;2.60;99.90;;;;;;5015834;28;20273;-87
2022/04/04 08:23:12;;;;;;;10.13;9.83;;;2.90;99.90;;;;;;5081419;28;20229;-87
2022/04/04 09:22:59;;;;;;;10.10;9.80;;;4.90;99.90;;;;;;4892856;29;20252;-83
2022/04/04 09:31:20;;;;;;;10.20;9.90;;;4.80;99.90;;;;;;5060098;28;20241;-86
2022/04/04 09:37:25;;;;;;;10.13;9.83;;;5.00;99.90;;;;;;5058740;28;20222;-83
2022/04/04 09:43:03;;;;;;;10.40;10.10;;;5.10;99.90;;;;;;5061055;28;20227;-83
2022/04/04 09:45:33;;;;;;;10.47;10.17;;;5.20;99.90;;;;;;5060183;28;20253;-82
2022/04/04 09:51:52;;;;;;;10.30;10.00;;;5.50;99.90;;;;;;5058517;28;20234;-87
2022/04/04 09:57:28;;;;;;;10.10;9.80;;;5.90;99.90;;;;;;5057974;28;20235;-88
2022/04/04 10:00:18;;;;;;;10.60;10.30;;;5.90;99.90;;;;;;5061318;28;20299;-89
2022/04/04 10:06:16;;;;;;;10.30;10.00;;;5.90;99.90;;;;;;5062403;28;20358;-86
2022/04/04 10:11:55;;;;;;;10.10;9.80;;;6.10;99.90;;;;;;5079621;28;20226;-87
2022/04/04 10:14:33;;;;;;;9.80;9.50;;;6.00;99.90;;;;;;5081364;28;20316;-84
2022/04/04 10:17:12;;;;;;;9.97;9.67;;;6.00;99.90;;;;;;5080848;28;20222;-87
2022/04/04 10:19:52;;;;;;;9.80;9.50;;;6.00;99.90;;;;;;5080727;28;20292;-88
2022/04/04 10:23:29;;;;;;;10.10;9.80;;;6.00;99.90;;;;;;5079958;28;20229;-90
2022/04/04 10:29:51;;;;;;;9.83;9.53;;;5.80;99.90;;;;;;5038563;28;20215;-87
2022/04/04 10:32:28;;;;;;;9.80;9.50;;;6.00;99.90;;;;;;5038944;28;20295;-85
2022/04/04 10:35:32;;;;;;;9.47;9.17;;;6.00;99.90;;;;;;5080792;28;20356;-87
2022/04/04 10:38:44;;;;;;;9.40;9.10;;;6.00;99.90;;;;;;5083099;28;20238;-86
2022/04/04 10:42:43;;;;;;;9.70;9.40;;;6.00;99.90;;;;;;5082441;28;20275;-86
2022/04/04 10:45:21;;;;;;;9.70;9.40;;;6.00;99.90;;;;;;5087211;28;20279;-87
2022/04/04 10:47:49;;;;;;;10.03;9.73;;;6.10;99.90;;;;;;5086998;28;20222;-88
2022/04/04 10:50:29;;;;;;;9.90;9.60;;;6.00;99.90;;;;;;5087849;28;20263;-88
2022/04/04 10:53:08;;;;;;;9.80;9.50;;;5.80;99.90;;;;;;5082753;28;20225;-90
2022/04/04 10:58:40;;;;;;;10.00;9.70;;;5.90;99.90;;;;;;5082255;28;20229;-88
2022/04/04 11:01:18;;;;;;;9.80;9.50;;;6.30;99.90;;;;;;5082055;28;20229;-88
2022/04/04 11:04:08;;;;;;;9.70;9.40;;;6.60;99.90;;;;;;5084815;28;20233;-87
2022/04/04 11:09:51;;;;;;;9.57;9.27;;;6.70;99.90;;;;;;5086575;28;20226;-90
2022/04/04 11:12:27;;;;;;;10.00;9.70;;;6.70;99.90;;;;;;5085836;28;20268;-89
2022/04/04 11:18:48;;;;;;;9.90;9.60;;;6.70;99.90;;;;;;5085047;28;20664;-90
2022/04/04 11:21:59;;;;;;;9.90;9.60;;;7.20;99.90;;;;;;5082500;28;20257;-89
2022/04/04 11:24:39;;;;;;;9.50;9.20;;;7.20;99.90;;;;;;5082108;28;20253;-90
2022/04/04 11:27:18;;;;;;;9.60;9.30;;;7.30;99.90;;;;;;5083794;28;20283;-90
2022/04/04 11:29:48;;;;;;;9.37;9.07;;;7.30;99.90;;;;;;5080742;28;20234;-90
2022/04/04 11:32:25;;;;;;;9.60;9.30;;;7.30;99.90;;;;;;5081830;28;20317;-90
2022/04/04 11:35:01;;;;;;;9.60;9.30;;;7.00;99.90;;;;;;5083485;28;20234;-89
2022/04/04 11:40:29;;;;;;;9.60;9.30;;;6.70;99.90;;;;;;5081177;28;20284;-90
2022/04/04 11:42:59;;;;;;;9.80;9.50;;;6.60;99.90;;;;;;5096006;28;20238;-89
2022/04/04 11:48:14;;;;;;;9.77;9.47;;;6.80;99.90;;;;;;5086599;28;20214;-89
2022/04/04 11:51:00;;;;;;;10.00;9.70;;;7.00;99.90;;;;;;5084697;28;20245;-90
2022/04/04 11:53:39;;;;;;;9.60;9.30;;;7.00;99.90;;;;;;5081037;28;20293;-91
2022/04/04 11:56:12;;;;;;;10.07;9.77;;;7.20;99.90;;;;;;5081990;28;20230;-90
2022/04/04 11:58:57;;;;;;;10.00;9.70;;;7.00;99.90;;;;;;5088925;28;20226;-89
2022/04/04 12:01:33;;;;;;;10.13;9.83;;;6.90;99.90;;;;;;5092973;28;20229;-90
2022/04/04 12:04:13;;;;;;;10.20;9.90;;;7.00;99.90;;;;;;5145986;22;20321;-86
2022/04/04 12:10:59;;;;;;;9.80;9.50;;;7.30;99.90;;;;;;5062740;28;20226;-86
2022/04/04 12:16:41;;;;;;;9.87;9.57;;;7.30;99.90;;;;;;5058785;28;20211;-85
2022/04/04 12:24:54;;;;;;;9.83;9.53;;;7.60;99.90;;;;;;5058567;28;20208;-85
2022/04/04 12:25:19;;;;;;;9.90;9.60;;;7.50;99.90;;;;;;5059597;28;20231;-84
2022/04/04 12:28:39;;;;;;;10.23;9.93;;;7.40;99.90;;;;;;5049951;28;20271;-87
2022/04/04 12:31:38;;;;;;;9.80;9.50;;;7.60;99.90;;;;;;5052706;28;20282;-86
2022/04/04 12:34:32;;;;;;;9.67;9.37;;;8.00;99.90;;;;;;5050734;28;20246;-87
2022/04/04 12:37:10;;;;;;;9.90;9.60;;;7.90;99.90;;;;;;5042709;28;20261;-87
2022/04/04 12:39:48;;;;;;;9.97;9.67;;;7.90;99.90;;;;;;5042823;28;20287;-88
2022/04/04 12:42:53;;;;;;;9.80;9.50;;;7.90;99.90;;;;;;5043158;28;20227;-86
2022/04/04 12:45:47;;;;;;;10.10;9.80;;;7.80;99.90;;;;;;5042233;28;20235;-86
2022/04/04 12:52:22;;;;;;;9.80;9.50;;;7.90;99.90;;;;;;5030380;28;20219;-86
2022/04/04 12:55:39;;;;;;;9.80;9.50;;;8.00;99.90;;;;;;5033722;28;20267;-87
2022/04/04 12:58:24;;;;;;;9.80;9.50;;;7.90;99.90;;;;;;5035043;28;20223;-84
2022/04/04 13:01:36;;;;;;;9.93;9.63;;;8.00;99.90;;;;;;5023428;28;20288;-87
2022/04/04 13:07:42;;;;;;;10.03;9.73;;;8.30;99.90;;;;;;5032916;28;20230;-88
2022/04/04 13:10:35;;;;;;;9.80;9.50;;;8.60;99.90;;;;;;5019067;28;20238;-88
2022/04/04 13:13:26;;;;;;;9.70;9.40;;;8.40;99.90;;;;;;5023491;28;20263;-88
2022/04/04 13:30:08;;;;;;;9.90;9.60;;;8.50;99.90;;;;;;5180104;27;20383;-87
2022/04/04 13:33:08;;;;;;;10.40;10.10;;;8.40;99.90;;;;;;5168965;27;20235;-87
2022/04/04 13:39:37;;;;;;;10.27;9.97;;;8.40;99.90;;;;;;5149708;27;20228;-86
2022/04/04 13:45:34;;;;;;;9.53;9.23;;;8.20;99.90;;;;;;5140273;27;20295;-89
2022/04/04 13:48:38;;;;;;;9.60;9.30;;;8.10;99.90;;;;;;5139086;27;20227;-87
2022/04/04 13:51:31;;;;;;;9.67;9.37;;;8.20;99.90;;;;;;5137867;27;20236;-88
2022/04/04 13:54:06;;;;;;;9.60;9.30;;;8.50;99.90;;;;;;5139117;27;20228;-88
2022/04/04 13:56:47;;;;;;;9.80;9.50;;;8.60;99.90;;;;;;5139381;27;20228;-87
2022/04/04 13:59:58;;;;;;;9.70;9.40;;;8.30;99.90;;;;;;5140986;27;20231;-88
2022/04/04 14:07:20;;;;;;;9.77;9.47;;;7.90;99.90;;;;;;5015922;28;20211;-88
2022/04/04 14:14:16;;;;;;;10.20;9.90;;;7.90;99.90;;;;;;5009809;28;20234;-88
2022/04/04 14:17:42;;;;;;;10.60;10.30;;;7.90;99.90;;;;;;5087711;27;20235;-87
2022/04/04 15:03:15;;;;;;;10.03;9.73;;;7.40;99.90;;;;;;4945638;28;20255;-85
2022/04/04 15:06:34;;;;;;;9.83;9.53;;;7.30;99.90;;;;;;5025966;28;20292;-85
2022/04/04 15:10:12;;;;;;;9.80;9.50;;;7.20;99.90;;;;;;5067449;28;20235;-85
2022/04/04 15:16:56;;;;;;;;;;;;;;;;;;;;;
2022/04/04 15:44:03;;;;;;;10.47;10.17;;;6.80;99.90;;;;;;5028186;28;20228;-84
2022/04/04 15:47:03;;;;;;;10.10;9.80;;;6.70;99.90;;;;;;5003240;28;20236;-85
2022/04/04 15:50:21;;;;;;;;;;;;;;;;;;;;;
2022/04/04 16:14:39;;;;;;;9.87;9.57;;;6.40;99.90;;;;;;5042711;28;20235;-86
2022/04/04 16:17:11;;;;;;;9.90;9.60;;;6.30;99.90;;;;;;5044620;28;20291;-87
2022/04/04 16:19:47;;;;;;;10.10;9.80;;;6.30;99.90;;;;;;5043718;28;20286;-87
2022/04/04 16:25:20;;;;;;;10.10;9.80;;;6.20;99.90;;;;;;5035845;28;20247;-85
2022/04/04 17:19:23;;;;;;;10.30;10.00;;;6.20;99.90;;;;;;4865269;28;20240;-86
2022/04/04 19:18:11;;;;;;;9.60;9.30;;;5.70;99.90;;;;;;4857333;29;20241;-84
2022/04/04 19:24:15;;;;;;;9.40;9.10;;;5.60;99.90;;;;;;5072282;22;20720;-82
2022/04/04 19:35:02;;;;;;;9.40;9.10;;;5.60;99.90;;;;;;4958633;28;20230;-82
2022/04/04 19:38:18;;;;;;;;;;;;;;;;;;;;;
2022/04/04 19:41:11;;;;;;;9.30;9.00;;;5.70;99.90;;;;;;5005600;28;20225;-82
2022/04/04 19:43:55;;;;;;;9.30;9.00;;;5.70;99.90;;;;;;5003174;28;20347;-82
2022/04/04 19:50:19;;;;;;;9.40;9.10;;;5.70;99.90;;;;;;4991929;28;20224;-82
2022/04/04 19:52:47;;;;;;;9.40;9.10;;;5.70;99.90;;;;;;5022054;28;20259;-82
2022/04/04 19:55:16;;;;;;;9.40;9.10;;;5.70;99.90;;;;;;5023146;28;20255;-81
2022/04/04 19:57:49;;;;;;;9.40;9.10;;;5.60;99.90;;;;;;5021696;28;20259;-82
2022/04/04 20:00:17;;;;;;;9.10;8.80;;;5.60;99.90;;;;;;5023442;28;20216;-81
2022/04/04 20:02:50;;;;;;;9.40;9.10;;;5.60;99.90;;;;;;5022330;28;20228;-82
2022/04/04 20:05:19;;;;;;;9.10;8.87;;;5.60;99.90;;;;;;5021835;28;20228;-82
2022/04/04 20:07:49;;;;;;;9.10;8.80;;;5.70;99.90;;;;;;5021443;28;20270;-82
2022/04/04 20:10:17;;;;;;;9.23;8.93;;;5.70;99.90;;;;;;5021907;28;20228;-81
2022/04/04 20:12:44;;;;;;;9.20;8.90;;;5.70;99.90;;;;;;5020678;28;20239;-82
2022/04/04 20:15:13;;;;;;;9.30;9.00;;;5.70;99.90;;;;;;5020896;28;20332;-82
2022/04/04 20:17:41;;;;;;;9.60;9.30;;;5.70;99.90;;;;;;5020635;28;20240;-81
2022/04/04 20:20:10;;;;;;;9.70;9.40;;;5.70;99.90;;;;;;5028031;28;20248;-82
2022/04/04 20:22:40;;;;;;;9.50;9.20;;;5.70;99.90;;;;;;5028320;28;20274;-81
2022/04/04 20:25:13;;;;;;;9.40;9.10;;;5.70;99.90;;;;;;5023351;28;20308;-80
2022/04/04 20:27:42;;;;;;;9.73;9.43;;;5.70;99.90;;;;;;5020689;28;20315;-83
2022/04/04 20:30:12;;;;;;;9.67;9.37;;;5.70;99.90;;;;;;5020711;28;20314;-83
2022/04/04 20:32:40;;;;;;;9.60;9.30;;;5.70;99.90;;;;;;5020240;28;20235;-82
2022/04/04 20:35:10;;;;;;;9.67;9.37;;;5.60;99.90;;;;;;5023651;28;20235;-83
2022/04/04 20:37:42;;;;;;;9.80;9.50;;;5.70;99.90;;;;;;5028024;28;20235;-83
2022/04/04 20:40:18;;;;;;;9.67;9.37;;;5.60;99.90;;;;;;5021465;28;20287;-82
2022/04/04 20:42:49;;;;;;;9.83;9.53;;;5.60;99.90;;;;;;5021237;28;20231;-83
2022/04/04 20:45:17;;;;;;;10.27;9.97;;;5.60;99.90;;;;;;5022230;28;20226;-83
2022/04/04 20:47:50;;;;;;;9.80;9.50;;;5.60;99.90;;;;;;5021862;28;20258;-83
2022/04/04 20:50:22;;;;;;;9.63;9.33;;;5.60;99.90;;;;;;5026856;28;20220;-83
2022/04/04 20:53:02;;;;;;;9.60;9.30;;;5.60;99.90;;;;;;5029979;28;20291;-83
2022/04/04 20:55:35;;;;;;;9.73;9.43;;;5.60;99.90;;;;;;5030440;28;20243;-83
2022/04/04 20:58:29;;;;;;;9.60;9.30;;;5.60;99.90;;;;;;5032774;28;20287;-84
2022/04/04 21:04:17;;;;;;;9.60;9.30;;;5.60;99.90;;;;;;5011063;28;20251;-81
2022/04/04 21:06:55;;;;;;;9.67;9.37;;;5.50;99.90;;;;;;5039367;28;20228;-83
2022/04/04 21:09:31;;;;;;;9.53;9.23;;;5.50;99.90;;;;;;5039346;28;20220;-83
2022/04/04 21:12:09;;;;;;;9.40;9.10;;;5.50;99.90;;;;;;5028168;28;20259;-82
2022/04/04 21:14:48;;;;;;;9.50;9.20;;;5.50;99.90;;;;;;5020442;28;20776;-82
2022/04/04 21:17:22;;;;;;;9.57;9.27;;;5.40;99.90;;;;;;5021729;28;20223;-83
2022/04/04 21:20:06;;;;;;;9.60;9.30;;;5.40;99.90;;;;;;5019849;28;20228;-83
2022/04/04 21:22:45;;;;;;;9.47;9.17;;;5.40;99.90;;;;;;5020357;28;20232;-83
2022/04/04 21:25:32;;;;;;;9.27;8.97;;;5.40;99.90;;;;;;5030791;28;20331;-81
2022/04/04 21:28:03;;;;;;;9.50;9.20;;;5.40;99.90;;;;;;5037321;28;20283;-84
2022/04/04 21:31:05;;;;;;;9.40;9.10;;;5.40;99.90;;;;;;5036762;28;20288;-84
2022/04/04 21:33:39;;;;;;;9.40;9.10;;;5.40;99.90;;;;;;5036719;28;20224;-84
2022/04/04 21:36:09;;;;;;;9.50;9.20;;;5.40;99.90;;;;;;5030309;28;20224;-83
2022/04/04 21:38:46;;;;;;;9.40;9.10;;;5.40;99.90;;;;;;5020439;28;20232;-82
2022/04/04 21:41:16;;;;;;;9.20;8.90;;;5.40;99.90;;;;;;5024093;28;20230;-83
2022/04/04 21:44:05;;;;;;;9.63;9.33;;;5.30;99.90;;;;;;5023142;28;20224;-83
2022/04/04 21:46:39;;;;;;;9.50;9.20;;;5.30;99.90;;;;;;5022825;28;20283;-82
2022/04/04 21:49:07;;;;;;;9.47;9.17;;;5.30;99.90;;;;;;5022607;28;20236;-82
2022/04/04 21:51:38;;;;;;;9.47;9.17;;;5.40;99.90;;;;;;5022127;28;20243;-83
2022/04/04 21:54:21;;;;;;;9.20;8.90;;;5.30;99.90;;;;;;5022706;28;20278;-82
2022/04/04 21:56:52;;;;;;;9.60;9.30;;;5.40;99.90;;;;;;5023211;28;20220;-83
2022/04/04 21:59:45;;;;;;;9.93;9.63;;;5.30;99.90;;;;;;5023286;28;20232;-84
2022/04/04 22:02:24;;;;;;;9.50;9.20;;;5.30;99.90;;;;;;5023066;28;20318;-84
2022/04/04 22:05:00;;;;;;;9.07;8.87;;;5.30;99.90;;;;;;5023629;28;20224;-83
2022/04/04 22:07:32;;;;;;;9.40;9.10;;;5.30;99.90;;;;;;5003407;28;20236;-84
2022/04/04 22:10:00;;;;;;;9.30;9.00;;;5.30;99.90;;;;;;5003184;28;20236;-84
2022/04/04 22:12:32;;;;;;;9.47;9.17;;;5.30;99.90;;;;;;5002526;28;20229;-82
2022/04/04 22:15:03;;;;;;;9.27;8.97;;;5.30;99.90;;;;;;5003266;28;20217;-81
2022/04/04 22:17:36;;;;;;;9.80;9.50;;;5.40;99.90;;;;;;5004840;28;20287;-84